sensor_id;sensor_type;location;lat;lon;timestamp;pressure;altitude;pressure_sealevel;temperature;humidity
20115;BME280;10218;42.874;25.320;2023-03-01T00:01:18;97973.81;;;6.76;100.00
20115;BME280;10218;42.874;25.320;2023-03-01T00:03:46;97978.94;;;6.88;100.00
20115;BME280;10218;42.874;25.320;2023-03-01T00:06:13;97966.13;;;7.45;100.00
20115;BME280;10218;42.874;25.320;2023-03-01T00:08:41;97967.66;;;7.78;100.00
20115;BME280;10218;42.874;25.320;2023-03-01T00:11:10;97954.19;;;7.69;100.00
20115;BME280;10218;42.874;25.320;2023-03-01T00:13:39;97967.69;;;7.26;100.00
20115;BME280;10218;42.874;25.320;2023-03-01T00:16:08;97958.50;;;7.30;100.00
20115;BME280;10218;42.874;25.320;2023-03-01T00:18:36;97948.78;;;7.41;100.00
20115;BME280;10218;42.874;25.320;2023-03-01T00:21:03;97949.91;;;7.48;100.00
20115;BME280;10218;42.874;25.320;2023-03-01T00:23:30;97946.25;;;7.79;100.00
20115;BME280;10218;42.874;25.320;2023-03-01T00:25:57;97942.72;;;7.69;100.00
20115;BME280;10218;42.874;25.320;2023-03-01T00:28:24;97936.09;;;7.63;100.00
20115;BME280;10218;42.874;25.320;2023-03-01T00:30:51;97943.34;;;7.21;100.00
20115;BME280;10218;42.874;25.320;2023-03-01T00:33:18;97932.44;;;6.94;100.00
20115;BME280;10218;42.874;25.320;2023-03-01T00:35:46;97936.16;;;7.43;100.00
20115;BME280;10218;42.874;25.320;2023-03-01T00:38:13;97931.94;;;7.30;100.00
20115;BME280;10218;42.874;25.320;2023-03-01T00:40:40;97921.44;;;7.69;100.00
20115;BME280;10218;42.874;25.320;2023-03-01T00:43:08;97915.81;;;7.72;100.00
20115;BME280;10218;42.874;25.320;2023-03-01T00:45:35;97916.41;;;7.66;100.00
20115;BME280;10218;42.874;25.320;2023-03-01T00:48:03;97910.44;;;7.13;100.00
20115;BME280;10218;42.874;25.320;2023-03-01T00:50:30;97919.25;;;7.13;100.00
20115;BME280;10218;42.874;25.320;2023-03-01T00:52:57;97922.41;;;6.77;100.00
20115;BME280;10218;42.874;25.320;2023-03-01T00:55:25;97912.19;;;7.03;100.00
20115;BME280;10218;42.874;25.320;2023-03-01T00:57:52;97895.16;;;7.36;100.00
20115;BME280;10218;42.874;25.320;2023-03-01T01:00:20;97900.28;;;7.27;100.00
20115;BME280;10218;42.874;25.320;2023-03-01T01:02:48;97907.06;;;6.80;100.00
20115;BME280;10218;42.874;25.320;2023-03-01T01:05:15;97896.34;;;6.71;100.00
20115;BME280;10218;42.874;25.320;2023-03-01T01:07:48;97913.37;;;6.48;100.00
20115;BME280;10218;42.874;25.320;2023-03-01T01:10:15;97909.16;;;6.66;100.00
20115;BME280;10218;42.874;25.320;2023-03-01T01:12:44;97906.94;;;7.12;100.00
20115;BME280;10218;42.874;25.320;2023-03-01T01:15:12;97907.16;;;7.30;100.00
20115;BME280;10218;42.874;25.320;2023-03-01T01:17:41;97902.41;;;7.34;100.00
20115;BME280;10218;42.874;25.320;2023-03-01T01:20:08;97900.09;;;7.50;100.00
20115;BME280;10218;42.874;25.320;2023-03-01T01:22:35;97900.97;;;7.20;100.00
20115;BME280;10218;42.874;25.320;2023-03-01T01:25:03;97897.91;;;6.94;100.00
20115;BME280;10218;42.874;25.320;2023-03-01T01:27:30;97908.53;;;6.94;100.00
20115;BME280;10218;42.874;25.320;2023-03-01T01:29:57;97900.66;;;7.53;100.00
20115;BME280;10218;42.874;25.320;2023-03-01T01:32:24;97903.97;;;7.86;100.00
20115;BME280;10218;42.874;25.320;2023-03-01T01:34:52;97903.84;;;7.87;100.00
20115;BME280;10218;42.874;25.320;2023-03-01T01:37:20;97901.66;;;7.62;100.00
20115;BME280;10218;42.874;25.320;2023-03-01T01:39:47;97900.88;;;7.71;100.00
20115;BME280;10218;42.874;25.320;2023-03-01T01:42:18;97900.66;;;7.53;100.00
20115;BME280;10218;42.874;25.320;2023-03-01T01:44:46;97894.25;;;7.56;100.00
20115;BME280;10218;42.874;25.320;2023-03-01T01:47:20;97886.56;;;7.72;100.00
20115;BME280;10218;42.874;25.320;2023-03-01T01:49:51;97883.66;;;7.75;100.00
20115;BME280;10218;42.874;25.320;2023-03-01T01:52:35;97885.59;;;7.73;100.00
20115;BME280;10218;42.874;25.320;2023-03-01T01:55:14;97887.72;;;7.29;100.00
20115;BME280;10218;42.874;25.320;2023-03-01T01:57:45;97885.09;;;7.39;100.00
20115;BME280;10218;42.874;25.320;2023-03-01T02:00:25;97882.87;;;7.44;100.00
20115;BME280;10218;42.874;25.320;2023-03-01T02:03:08;97891.78;;;7.93;100.00
20115;BME280;10218;42.874;25.320;2023-03-01T02:08:25;97889.28;;;7.91;100.00
20115;BME280;10218;42.874;25.320;2023-03-01T02:10:55;97890.28;;;7.41;100.00
20115;BME280;10218;42.874;25.320;2023-03-01T02:13:23;97886.38;;;7.45;100.00
20115;BME280;10218;42.874;25.320;2023-03-01T02:15:50;97889.63;;;7.18;100.00
20115;BME280;10218;42.874;25.320;2023-03-01T02:18:21;97884.72;;;7.63;100.00
20115;BME280;10218;42.874;25.320;2023-03-01T02:21:21;97880.72;;;7.78;100.00
20115;BME280;10218;42.874;25.320;2023-03-01T02:23:54;97875.13;;;7.81;100.00
20115;BME280;10218;42.874;25.320;2023-03-01T02:26:41;97874.16;;;7.82;100.00
20115;BME280;10218;42.874;25.320;2023-03-01T02:29:09;97873.53;;;7.50;100.00
20115;BME280;10218;42.874;25.320;2023-03-01T02:31:36;97869.53;;;7.25;100.00
20115;BME280;10218;42.874;25.320;2023-03-01T02:34:16;97879.97;;;7.17;100.00
20115;BME280;10218;42.874;25.320;2023-03-01T02:36:49;97875.78;;;7.64;100.00
20115;BME280;10218;42.874;25.320;2023-03-01T02:39:22;97867.22;;;7.51;100.00
20115;BME280;10218;42.874;25.320;2023-03-01T02:41:52;97865.59;;;7.79;100.00
20115;BME280;10218;42.874;25.320;2023-03-01T02:44:21;97877.72;;;7.52;100.00
20115;BME280;10218;42.874;25.320;2023-03-01T02:46:52;97880.63;;;7.09;100.00
20115;BME280;10218;42.874;25.320;2023-03-01T02:49:30;97874.53;;;7.18;100.00
20115;BME280;10218;42.874;25.320;2023-03-01T02:52:19;97873.94;;;7.55;100.00
20115;BME280;10218;42.874;25.320;2023-03-01T02:57:20;97872.53;;;7.51;100.00
20115;BME280;10218;42.874;25.320;2023-03-01T02:59:50;97876.03;;;7.11;100.00
20115;BME280;10218;42.874;25.320;2023-03-01T03:02:23;97878.94;;;7.08;100.00
20115;BME280;10218;42.874;25.320;2023-03-01T03:05:07;97871.25;;;7.05;100.00
20115;BME280;10218;42.874;25.320;2023-03-01T03:07:37;97869.47;;;7.55;100.00
20115;BME280;10218;42.874;25.320;2023-03-01T03:10:07;97872.91;;;7.86;100.00
20115;BME280;10218;42.874;25.320;2023-03-01T03:12:35;97872.16;;;7.74;100.00
20115;BME280;10218;42.874;25.320;2023-03-01T03:15:02;97862.34;;;7.16;100.00
20115;BME280;10218;42.874;25.320;2023-03-01T03:17:36;97877.25;;;7.07;100.00
20115;BME280;10218;42.874;25.320;2023-03-01T03:20:04;97852.78;;;7.44;100.00
20115;BME280;10218;42.874;25.320;2023-03-01T03:22:32;97864.06;;;7.66;100.00
20115;BME280;10218;42.874;25.320;2023-03-01T03:25:00;97866.97;;;7.73;100.00
20115;BME280;10218;42.874;25.320;2023-03-01T03:27:28;97866.06;;;7.34;100.00
20115;BME280;10218;42.874;25.320;2023-03-01T03:29:55;97855.59;;;7.52;100.00
20115;BME280;10218;42.874;25.320;2023-03-01T03:32:22;97862.38;;;7.25;100.00
20115;BME280;10218;42.874;25.320;2023-03-01T03:34:49;97868.19;;;7.40;100.00
20115;BME280;10218;42.874;25.320;2023-03-01T03:37:16;97862.56;;;7.43;100.00
20115;BME280;10218;42.874;25.320;2023-03-01T03:40:02;97870.47;;;7.64;100.00
20115;BME280;10218;42.874;25.320;2023-03-01T03:42:29;97868.72;;;7.34;100.00
20115;BME280;10218;42.874;25.320;2023-03-01T03:44:59;97870.44;;;7.54;100.00
20115;BME280;10218;42.874;25.320;2023-03-01T03:47:26;97865.94;;;7.36;100.00
20115;BME280;10218;42.874;25.320;2023-03-01T03:49:53;97877.44;;;6.85;100.00
20115;BME280;10218;42.874;25.320;2023-03-01T03:52:20;97871.59;;;6.91;100.00
20115;BME280;10218;42.874;25.320;2023-03-01T03:54:48;97867.00;;;7.23;100.00
20115;BME280;10218;42.874;25.320;2023-03-01T04:00:01;97864.78;;;7.38;100.00
20115;BME280;10218;42.874;25.320;2023-03-01T04:02:41;97868.44;;;7.37;100.00
20115;BME280;10218;42.874;25.320;2023-03-01T04:05:10;97867.44;;;6.98;100.00
20115;BME280;10218;42.874;25.320;2023-03-01T04:07:38;97870.00;;;6.37;100.00
20115;BME280;10218;42.874;25.320;2023-03-01T04:10:08;97869.16;;;6.58;100.00
20115;BME280;10218;42.874;25.320;2023-03-01T04:12:36;97871.03;;;6.87;100.00
20115;BME280;10218;42.874;25.320;2023-03-01T04:15:06;97872.91;;;7.37;100.00
20115;BME280;10218;42.874;25.320;2023-03-01T04:17:44;97874.59;;;7.38;100.00
20115;BME280;10218;42.874;25.320;2023-03-01T04:20:21;97856.69;;;7.40;100.00
20115;BME280;10218;42.874;25.320;2023-03-01T04:23:18;97869.28;;;7.07;100.00
20115;BME280;10218;42.874;25.320;2023-03-01T04:28:25;97870.72;;;7.51;100.00
20115;BME280;10218;42.874;25.320;2023-03-01T04:30:55;97868.78;;;7.63;100.00
20115;BME280;10218;42.874;25.320;2023-03-01T04:33:23;97876.34;;;7.67;100.00
20115;BME280;10218;42.874;25.320;2023-03-01T04:35:50;97879.22;;;7.05;100.00
20115;BME280;10218;42.874;25.320;2023-03-01T04:38:18;97873.13;;;7.14;100.00
20115;BME280;10218;42.874;25.320;2023-03-01T04:40:46;97878.22;;;7.37;100.00
20115;BME280;10218;42.874;25.320;2023-03-01T04:43:13;97872.38;;;7.52;100.00
20115;BME280;10218;42.874;25.320;2023-03-01T04:45:41;97866.19;;;7.32;100.00
20115;BME280;10218;42.874;25.320;2023-03-01T04:48:09;97858.72;;;7.66;100.00
20115;BME280;10218;42.874;25.320;2023-03-01T04:50:36;97851.97;;;7.62;100.00
20115;BME280;10218;42.874;25.320;2023-03-01T04:53:03;97852.37;;;6.78;100.00
20115;BME280;10218;42.874;25.320;2023-03-01T04:55:30;97872.59;;;6.69;100.00
20115;BME280;10218;42.874;25.320;2023-03-01T04:57:58;97880.91;;;6.55;100.00
20115;BME280;10218;42.874;25.320;2023-03-01T05:00:25;97868.31;;;7.08;100.00
20115;BME280;10218;42.874;25.320;2023-03-01T05:02:58;97868.94;;;6.91;100.00
20115;BME280;10218;42.874;25.320;2023-03-01T05:05:33;97866.63;;;7.07;100.00
20115;BME280;10218;42.874;25.320;2023-03-01T05:08:03;97864.63;;;6.69;100.00
20115;BME280;10218;42.874;25.320;2023-03-01T05:10:32;97862.97;;;6.48;100.00
20115;BME280;10218;42.874;25.320;2023-03-01T05:12:59;97867.50;;;6.87;100.00
20115;BME280;10218;42.874;25.320;2023-03-01T05:15:28;97867.53;;;7.17;100.00
20115;BME280;10218;42.874;25.320;2023-03-01T05:17:58;97864.41;;;7.12;100.00
20115;BME280;10218;42.874;25.320;2023-03-01T05:20:27;97868.16;;;7.30;100.00
20115;BME280;10218;42.874;25.320;2023-03-01T05:22:57;97875.91;;;6.62;100.00
20115;BME280;10218;42.874;25.320;2023-03-01T05:25:26;97870.12;;;6.57;100.00
20115;BME280;10218;42.874;25.320;2023-03-01T05:27:54;97871.66;;;6.50;100.00
20115;BME280;10218;42.874;25.320;2023-03-01T05:30:20;97872.66;;;6.79;100.00
20115;BME280;10218;42.874;25.320;2023-03-01T05:32:49;97897.13;;;6.62;100.00
20115;BME280;10218;42.874;25.320;2023-03-01T05:35:22;97884.25;;;6.57;100.00
20115;BME280;10218;42.874;25.320;2023-03-01T05:37:50;97882.78;;;6.64;100.00
20115;BME280;10218;42.874;25.320;2023-03-01T05:40:20;97889.16;;;6.82;100.00
20115;BME280;10218;42.874;25.320;2023-03-01T05:42:53;97886.38;;;6.84;100.00
20115;BME280;10218;42.874;25.320;2023-03-01T05:45:23;97887.41;;;6.93;100.00
20115;BME280;10218;42.874;25.320;2023-03-01T05:47:51;97873.19;;;7.03;100.00
20115;BME280;10218;42.874;25.320;2023-03-01T05:50:19;97881.53;;;7.19;100.00
20115;BME280;10218;42.874;25.320;2023-03-01T05:52:48;97879.94;;;7.47;100.00
20115;BME280;10218;42.874;25.320;2023-03-01T05:55:18;97885.41;;;6.85;100.00
20115;BME280;10218;42.874;25.320;2023-03-01T05:57:45;97886.38;;;6.84;100.00
20115;BME280;10218;42.874;25.320;2023-03-01T06:00:14;97887.53;;;6.91;100.00
20115;BME280;10218;42.874;25.320;2023-03-01T06:02:41;97889.56;;;7.39;100.00
20115;BME280;10218;42.874;25.320;2023-03-01T06:05:10;97883.44;;;6.87;100.00
20115;BME280;10218;42.874;25.320;2023-03-01T06:07:37;97887.06;;;6.86;100.00
20115;BME280;10218;42.874;25.320;2023-03-01T06:10:05;97892.47;;;6.96;100.00
20115;BME280;10218;42.874;25.320;2023-03-01T06:12:35;97882.09;;;6.72;100.00
20115;BME280;10218;42.874;25.320;2023-03-01T06:15:03;97888.75;;;7.08;100.00
20115;BME280;10218;42.874;25.320;2023-03-01T06:17:33;97880.44;;;7.31;100.00
20115;BME280;10218;42.874;25.320;2023-03-01T06:20:05;97878.72;;;7.51;100.00
20115;BME280;10218;42.874;25.320;2023-03-01T06:22:33;97895.03;;;7.07;100.00
20115;BME280;10218;42.874;25.320;2023-03-01T06:25:00;97895.16;;;6.75;100.00
20115;BME280;10218;42.874;25.320;2023-03-01T06:27:27;97898.44;;;6.47;100.00
20115;BME280;10218;42.874;25.320;2023-03-01T06:29:55;97902.72;;;6.59;100.00
20115;BME280;10218;42.874;25.320;2023-03-01T06:32:22;97905.50;;;6.78;100.00
20115;BME280;10218;42.874;25.320;2023-03-01T06:34:49;97899.69;;;7.14;100.00
20115;BME280;10218;42.874;25.320;2023-03-01T06:37:17;97896.94;;;6.95;100.00
20115;BME280;10218;42.874;25.320;2023-03-01T06:39:44;97894.69;;;6.91;100.00
20115;BME280;10218;42.874;25.320;2023-03-01T06:42:11;97902.03;;;6.87;100.00
20115;BME280;10218;42.874;25.320;2023-03-01T06:44:38;97903.84;;;7.07;100.00
20115;BME280;10218;42.874;25.320;2023-03-01T06:47:05;97900.28;;;7.27;100.00
20115;BME280;10218;42.874;25.320;2023-03-01T06:49:32;97896.28;;;7.43;100.00
20115;BME280;10218;42.874;25.320;2023-03-01T06:51:59;97903.47;;;6.91;100.00
20115;BME280;10218;42.874;25.320;2023-03-01T06:54:26;97905.84;;;7.15;100.00
20115;BME280;10218;42.874;25.320;2023-03-01T06:56:53;97902.25;;;7.65;100.00
20115;BME280;10218;42.874;25.320;2023-03-01T06:59:21;97897.00;;;7.45;100.00
20115;BME280;10218;42.874;25.320;2023-03-01T07:01:48;97893.09;;;7.49;100.00
20115;BME280;10218;42.874;25.320;2023-03-01T07:04:17;97900.13;;;7.59;100.00
20115;BME280;10218;42.874;25.320;2023-03-01T07:06:45;97900.47;;;7.85;100.00
20115;BME280;10218;42.874;25.320;2023-03-01T07:09:11;97896.56;;;7.89;100.00
20115;BME280;10218;42.874;25.320;2023-03-01T07:11:38;97908.22;;;7.18;100.00
20115;BME280;10218;42.874;25.320;2023-03-01T07:14:06;97895.38;;;6.72;100.00
20115;BME280;10218;42.874;25.320;2023-03-01T07:16:33;97896.34;;;7.22;100.00
20115;BME280;10218;42.874;25.320;2023-03-01T07:19:00;97907.22;;;7.09;100.00
20115;BME280;10218;42.874;25.320;2023-03-01T07:21:28;97895.44;;;7.42;100.00
20115;BME280;10218;42.874;25.320;2023-03-01T07:23:55;97898.25;;;7.41;100.00
20115;BME280;10218;42.874;25.320;2023-03-01T07:26:22;97899.03;;;6.50;100.00
20115;BME280;10218;42.874;25.320;2023-03-01T07:28:51;97901.97;;;6.98;100.00
20115;BME280;10218;42.874;25.320;2023-03-01T07:31:18;97904.59;;;7.19;100.00
20115;BME280;10218;42.874;25.320;2023-03-01T07:33:45;97895.13;;;7.76;100.00
20115;BME280;10218;42.874;25.320;2023-03-01T07:36:12;97889.53;;;6.99;100.00
20115;BME280;10218;42.874;25.320;2023-03-01T07:38:39;97900.47;;;7.05;100.00
20115;BME280;10218;42.874;25.320;2023-03-01T07:41:06;97899.59;;;6.95;100.00
20115;BME280;10218;42.874;25.320;2023-03-01T07:43:34;97896.31;;;7.12;100.00
20115;BME280;10218;42.874;25.320;2023-03-01T07:46:02;97900.25;;;6.67;100.00
20115;BME280;10218;42.874;25.320;2023-03-01T07:48:29;97897.91;;;6.73;100.00
20115;BME280;10218;42.874;25.320;2023-03-01T07:51:01;97889.44;;;6.79;100.00
20115;BME280;10218;42.874;25.320;2023-03-01T07:53:29;97897.03;;;7.14;100.00
20115;BME280;10218;42.874;25.320;2023-03-01T07:56:06;97887.94;;;7.57;100.00
20115;BME280;10218;42.874;25.320;2023-03-01T07:58:34;97899.09;;;8.00;100.00
20115;BME280;10218;42.874;25.320;2023-03-01T08:01:04;97882.87;;;7.44;100.00
20115;BME280;10218;42.874;25.320;2023-03-01T08:03:32;97896.75;;;7.17;100.00
20115;BME280;10218;42.874;25.320;2023-03-01T08:06:01;97898.88;;;7.23;100.00
20115;BME280;10218;42.874;25.320;2023-03-01T08:08:28;97868.69;;;7.24;100.00
20115;BME280;10218;42.874;25.320;2023-03-01T08:10:56;97885.28;;;7.57;100.00
20115;BME280;10218;42.874;25.320;2023-03-01T08:13:24;97878.22;;;7.37;100.00
20115;BME280;10218;42.874;25.320;2023-03-01T08:15:51;97890.06;;;7.23;100.00
20115;BME280;10218;42.874;25.320;2023-03-01T08:18:20;97892.13;;;7.10;100.00
20115;BME280;10218;42.874;25.320;2023-03-01T08:20:47;97891.16;;;7.51;100.00
20115;BME280;10218;42.874;25.320;2023-03-01T08:23:14;97887.44;;;7.32;100.00
20115;BME280;10218;42.874;25.320;2023-03-01T08:25:42;97889.94;;;7.24;100.00
20115;BME280;10218;42.874;25.320;2023-03-01T08:28:09;97891.47;;;7.27;100.00
20115;BME280;10218;42.874;25.320;2023-03-01T08:30:36;97881.44;;;7.90;100.00
20115;BME280;10218;42.874;25.320;2023-03-01T08:33:03;97890.34;;;7.60;100.00
20115;BME280;10218;42.874;25.320;2023-03-01T08:35:30;97886.31;;;7.25;100.00
20115;BME280;10218;42.874;25.320;2023-03-01T08:37:57;97888.66;;;7.59;100.00
20115;BME280;10218;42.874;25.320;2023-03-01T08:40:24;97882.81;;;7.74;100.00
20115;BME280;10218;42.874;25.320;2023-03-01T08:42:51;97891.34;;;7.68;100.00
20115;BME280;10218;42.874;25.320;2023-03-01T08:45:18;97889.81;;;7.66;100.00
20115;BME280;10218;42.874;25.320;2023-03-01T08:47:45;97885.13;;;8.18;100.00
20115;BME280;10218;42.874;25.320;2023-03-01T08:50:12;97887.84;;;7.78;100.00
20115;BME280;10218;42.874;25.320;2023-03-01T08:52:39;97889.22;;;7.72;100.00
20115;BME280;10218;42.874;25.320;2023-03-01T08:55:07;97894.41;;;8.33;100.00
20115;BME280;10218;42.874;25.320;2023-03-01T08:57:34;97895.16;;;7.95;100.00
20115;BME280;10218;42.874;25.320;2023-03-01T09:00:02;97897.87;;;7.55;100.00
20115;BME280;10218;42.874;25.320;2023-03-01T09:02:30;97898.34;;;7.29;100.00
20115;BME280;10218;42.874;25.320;2023-03-01T09:04:57;97897.22;;;7.32;100.00
20115;BME280;10218;42.874;25.320;2023-03-01T09:07:24;97905.16;;;7.22;100.00
20115;BME280;10218;42.874;25.320;2023-03-01T09:09:55;97900.59;;;7.34;100.00
20115;BME280;10218;42.874;25.320;2023-03-01T09:12:22;97906.41;;;7.18;100.00
20115;BME280;10218;42.874;25.320;2023-03-01T09:14:49;97894.47;;;7.43;100.00
20115;BME280;10218;42.874;25.320;2023-03-01T09:17:16;97899.88;;;7.02;100.00
20115;BME280;10218;42.874;25.320;2023-03-01T09:19:43;97899.69;;;7.54;100.00
20115;BME280;10218;42.874;25.320;2023-03-01T09:22:10;97891.94;;;7.42;100.00
20115;BME280;10218;42.874;25.320;2023-03-01T09:24:38;97905.41;;;8.09;100.00
20115;BME280;10218;42.874;25.320;2023-03-01T09:27:06;97898.97;;;7.92;100.00
20115;BME280;10218;42.874;25.320;2023-03-01T09:29:36;97895.13;;;7.76;100.00
20115;BME280;10218;42.874;25.320;2023-03-01T09:32:04;97890.56;;;7.97;100.00
20115;BME280;10218;42.874;25.320;2023-03-01T09:34:31;97885.22;;;7.87;100.00
20115;BME280;10218;42.874;25.320;2023-03-01T09:36:58;97883.81;;;7.34;100.00
20115;BME280;10218;42.874;25.320;2023-03-01T09:39:25;97888.78;;;7.67;100.00
20115;BME280;10218;42.874;25.320;2023-03-01T09:42:02;97884.94;;;7.90;100.00
20115;BME280;10218;42.874;25.320;2023-03-01T09:44:48;97887.69;;;7.20;100.00
20115;BME280;10218;42.874;25.320;2023-03-01T09:47:22;97879.16;;;7.66;100.00
20115;BME280;10218;42.874;25.320;2023-03-01T09:50:16;97885.59;;;7.73;100.00
20115;BME280;10218;42.874;25.320;2023-03-01T09:52:52;97878.94;;;7.39;100.00
20115;BME280;10218;42.874;25.320;2023-03-01T09:55:29;97876.41;;;7.87;100.00
20115;BME280;10218;42.874;25.320;2023-03-01T10:06:48;97862.50;;;7.64;100.00
20115;BME280;10218;42.874;25.320;2023-03-01T10:09:17;97876.13;;;7.90;100.00
20115;BME280;10218;42.874;25.320;2023-03-01T10:11:54;97873.56;;;7.79;100.00
20115;BME280;10218;42.874;25.320;2023-03-01T10:19:46;97863.41;;;7.44;100.00
20115;BME280;10218;42.874;25.320;2023-03-01T10:22:17;97868.25;;;7.88;100.00
20115;BME280;10218;42.874;25.320;2023-03-01T10:24:56;97862.34;;;7.56;100.00
20115;BME280;10218;42.874;25.320;2023-03-01T10:27:40;97864.41;;;8.31;100.00
20115;BME280;10218;42.874;25.320;2023-03-01T10:30:28;97864.22;;;7.84;100.00
20115;BME280;10218;42.874;25.320;2023-03-01T10:32:59;97857.91;;;7.85;100.00
20115;BME280;10218;42.874;25.320;2023-03-01T10:35:31;97858.63;;;8.06;100.00
20115;BME280;10218;42.874;25.320;2023-03-01T10:38:11;97851.75;;;7.75;100.00
20115;BME280;10218;42.874;25.320;2023-03-01T10:41:00;97858.75;;;7.86;100.00
20115;BME280;10218;42.874;25.320;2023-03-01T10:43:44;97848.12;;;7.95;100.00
20115;BME280;10218;42.874;25.320;2023-03-01T10:46:37;97844.81;;;7.44;100.00
20115;BME280;10218;42.874;25.320;2023-03-01T10:51:39;97843.06;;;7.83;100.00
20115;BME280;10218;42.874;25.320;2023-03-01T10:54:22;97835.44;;;7.40;100.00
20115;BME280;10218;42.874;25.320;2023-03-01T10:56:59;97838.44;;;8.23;100.00
20115;BME280;10218;42.874;25.320;2023-03-01T10:59:29;97832.56;;;8.20;100.00
20115;BME280;10218;42.874;25.320;2023-03-01T11:05:00;97831.88;;;7.98;100.00
20115;BME280;10218;42.874;25.320;2023-03-01T11:07:28;97828.22;;;8.18;100.00
20115;BME280;10218;42.874;25.320;2023-03-01T11:09:55;97813.09;;;7.81;100.00
20115;BME280;10218;42.874;25.320;2023-03-01T11:12:23;97824.72;;;8.18;100.00
20115;BME280;10218;42.874;25.320;2023-03-01T11:14:54;97825.97;;;7.66;100.00
20115;BME280;10218;42.874;25.320;2023-03-01T11:17:26;97807.72;;;7.52;100.00
20115;BME280;10218;42.874;25.320;2023-03-01T11:22:36;97814.37;;;7.86;100.00
20115;BME280;10218;42.874;25.320;2023-03-01T11:25:13;97818.56;;;7.79;100.00
20115;BME280;10218;42.874;25.320;2023-03-01T11:27:44;97804.44;;;8.36;100.00
20115;BME280;10218;42.874;25.320;2023-03-01T11:30:29;97814.06;;;7.60;100.00
20115;BME280;10218;42.874;25.320;2023-03-01T11:35:31;97808.31;;;7.55;100.00
20115;BME280;10218;42.874;25.320;2023-03-01T11:38:22;97792.78;;;7.99;100.00
20115;BME280;10218;42.874;25.320;2023-03-01T11:41:05;97783.37;;;8.52;100.00
20115;BME280;10218;42.874;25.320;2023-03-01T12:20:35;97758.66;;;7.56;100.00
20115;BME280;10218;42.874;25.320;2023-03-01T12:37:15;97751.38;;;7.77;100.00
20115;BME280;10218;42.874;25.320;2023-03-01T12:50:28;97745.06;;;7.40;100.00
20115;BME280;10218;42.874;25.320;2023-03-01T12:52:59;97758.19;;;8.18;100.00
20115;BME280;10218;42.874;25.320;2023-03-01T12:55:41;97747.25;;;8.21;100.00
20115;BME280;10218;42.874;25.320;2023-03-01T12:58:23;97749.78;;;8.03;100.00
20115;BME280;10218;42.874;25.320;2023-03-01T13:06:55;97743.38;;;8.06;100.00
20115;BME280;10218;42.874;25.320;2023-03-01T13:12:42;97738.31;;;8.32;100.00
20115;BME280;10218;42.874;25.320;2023-03-01T13:17:50;97738.16;;;8.43;100.00
20115;BME280;10218;42.874;25.320;2023-03-01T13:20:23;97745.87;;;7.98;100.00
20115;BME280;10218;42.874;25.320;2023-03-01T13:38:59;97738.53;;;8.29;100.00
20115;BME280;10218;42.874;25.320;2023-03-01T13:46:39;97731.88;;;8.05;100.00
20115;BME280;10218;42.874;25.320;2023-03-01T13:49:19;97727.84;;;8.57;100.00
20115;BME280;10218;42.874;25.320;2023-03-01T13:51:48;97729.09;;;8.07;100.00
20115;BME280;10218;42.874;25.320;2023-03-01T13:54:26;97740.03;;;7.75;100.00
20115;BME280;10218;42.874;25.320;2023-03-01T13:56:58;97741.00;;;7.45;100.00
20115;BME280;10218;42.874;25.320;2023-03-01T13:59:26;97743.06;;;8.18;100.00
20115;BME280;10218;42.874;25.320;2023-03-01T14:01:56;97736.25;;;7.87;100.00
20115;BME280;10218;42.874;25.320;2023-03-01T14:04:31;97730.63;;;8.00;100.00
20115;BME280;10218;42.874;25.320;2023-03-01T14:07:21;97739.31;;;7.73;100.00
20115;BME280;10218;42.874;25.320;2023-03-01T14:09:52;97729.66;;;7.72;100.00
20115;BME280;10218;42.874;25.320;2023-03-01T14:15:42;97730.91;;;7.68;100.00
20115;BME280;10218;42.874;25.320;2023-03-01T14:18:32;97723.91;;;7.67;100.00
20115;BME280;10218;42.874;25.320;2023-03-01T14:21:08;97720.03;;;7.61;100.00
20115;BME280;10218;42.874;25.320;2023-03-01T14:23:38;97707.00;;;7.87;100.00
20115;BME280;10218;42.874;25.320;2023-03-01T14:26:08;97703.22;;;8.46;100.00
20115;BME280;10218;42.874;25.320;2023-03-01T14:28:36;97714.19;;;8.33;100.00
20115;BME280;10218;42.874;25.320;2023-03-01T14:31:39;97715.19;;;8.13;100.00
20115;BME280;10218;42.874;25.320;2023-03-01T14:34:23;97720.09;;;8.08;100.00
20115;BME280;10218;42.874;25.320;2023-03-01T14:36:51;97711.31;;;7.79;100.00
20115;BME280;10218;42.874;25.320;2023-03-01T14:39:23;97706.28;;;8.51;100.00
20115;BME280;10218;42.874;25.320;2023-03-01T14:41:50;97715.84;;;8.44;100.00
20115;BME280;10218;42.874;25.320;2023-03-01T14:44:21;97716.22;;;7.83;100.00
20115;BME280;10218;42.874;25.320;2023-03-01T14:46:53;97722.50;;;8.01;100.00
20115;BME280;10218;42.874;25.320;2023-03-01T14:49:25;97726.53;;;8.15;100.00
20115;BME280;10218;42.874;25.320;2023-03-01T14:52:17;97722.13;;;7.77;100.00
20115;BME280;10218;42.874;25.320;2023-03-01T14:57:21;97721.19;;;8.34;100.00
20115;BME280;10218;42.874;25.320;2023-03-01T14:59:55;97716.44;;;8.18;100.00
20115;BME280;10218;42.874;25.320;2023-03-01T15:02:25;97721.66;;;8.10;100.00
20115;BME280;10218;42.874;25.320;2023-03-01T15:04:58;97705.66;;;8.30;100.00
20115;BME280;10218;42.874;25.320;2023-03-01T15:07:36;97725.44;;;8.18;100.00
20115;BME280;10218;42.874;25.320;2023-03-01T15:10:11;97713.94;;;8.17;100.00
20115;BME280;10218;42.874;25.320;2023-03-01T15:12:44;97712.31;;;8.43;100.00
20115;BME280;10218;42.874;25.320;2023-03-01T15:15:30;97704.69;;;8.31;100.00
20115;BME280;10218;42.874;25.320;2023-03-01T15:18:04;97710.00;;;8.21;100.00
20115;BME280;10218;42.874;25.320;2023-03-01T15:20:33;97709.63;;;7.97;100.00
20115;BME280;10218;42.874;25.320;2023-03-01T15:23:03;97712.13;;;7.98;100.00
20115;BME280;10218;42.874;25.320;2023-03-01T15:25:31;97704.84;;;8.00;100.00